sensor_id;sensor_type;location;lat;lon;timestamp;temperature;humidity
49385;DHT22;36795;45.028;38.968;2023-09-30T00:02:17;21.80;45.50
49385;DHT22;36795;45.028;38.968;2023-09-30T00:05:04;21.80;45.10
49385;DHT22;36795;45.028;38.968;2023-09-30T00:07:50;21.80;45.20
49385;DHT22;36795;45.028;38.968;2023-09-30T00:10:36;21.80;45.20
49385;DHT22;36795;45.028;38.968;2023-09-30T00:13:22;21.80;45.30
49385;DHT22;36795;45.028;38.968;2023-09-30T00:16:10;21.80;45.50
49385;DHT22;36795;45.028;38.968;2023-09-30T00:18:55;21.80;45.70
49385;DHT22;36795;45.028;38.968;2023-09-30T00:21:42;21.70;45.80
49385;DHT22;36795;45.028;38.968;2023-09-30T00:24:28;21.70;46.10
49385;DHT22;36795;45.028;38.968;2023-09-30T00:27:14;21.70;46.20
49385;DHT22;36795;45.028;38.968;2023-09-30T00:30:00;21.60;46.40
49385;DHT22;36795;45.028;38.968;2023-09-30T00:32:47;21.60;46.60
49385;DHT22;36795;45.028;38.968;2023-09-30T00:35:33;21.60;46.70
49385;DHT22;36795;45.028;38.968;2023-09-30T00:38:19;21.60;46.80
49385;DHT22;36795;45.028;38.968;2023-09-30T00:41:05;21.60;46.90
49385;DHT22;36795;45.028;38.968;2023-09-30T00:43:53;21.50;47.20
49385;DHT22;36795;45.028;38.968;2023-09-30T00:46:40;21.40;47.50
49385;DHT22;36795;45.028;38.968;2023-09-30T00:49:28;21.40;47.80
49385;DHT22;36795;45.028;38.968;2023-09-30T00:52:14;21.30;47.80
49385;DHT22;36795;45.028;38.968;2023-09-30T00:55:01;21.30;47.90
49385;DHT22;36795;45.028;38.968;2023-09-30T00:57:51;21.20;48.10
49385;DHT22;36795;45.028;38.968;2023-09-30T01:00:37;21.20;48.40
49385;DHT22;36795;45.028;38.968;2023-09-30T01:03:23;21.20;48.60
49385;DHT22;36795;45.028;38.968;2023-09-30T01:06:09;21.20;48.60
49385;DHT22;36795;45.028;38.968;2023-09-30T01:08:55;21.20;48.70
49385;DHT22;36795;45.028;38.968;2023-09-30T01:11:42;21.10;48.80
49385;DHT22;36795;45.028;38.968;2023-09-30T01:14:31;21.10;49.00
49385;DHT22;36795;45.028;38.968;2023-09-30T01:17:20;21.10;49.20
49385;DHT22;36795;45.028;38.968;2023-09-30T01:20:08;21.00;49.30
49385;DHT22;36795;45.028;38.968;2023-09-30T01:22:57;21.00;49.80
49385;DHT22;36795;45.028;38.968;2023-09-30T01:25:43;21.00;50.50
49385;DHT22;36795;45.028;38.968;2023-09-30T01:28:30;21.00;50.10
49385;DHT22;36795;45.028;38.968;2023-09-30T01:31:17;21.00;50.00
49385;DHT22;36795;45.028;38.968;2023-09-30T01:34:03;21.10;50.20
49385;DHT22;36795;45.028;38.968;2023-09-30T01:36:50;21.10;50.30
49385;DHT22;36795;45.028;38.968;2023-09-30T01:39:37;21.10;50.40
49385;DHT22;36795;45.028;38.968;2023-09-30T01:42:22;21.00;50.60
49385;DHT22;36795;45.028;38.968;2023-09-30T01:45:09;21.00;50.90
49385;DHT22;36795;45.028;38.968;2023-09-30T01:47:56;21.00;51.30
49385;DHT22;36795;45.028;38.968;2023-09-30T01:50:43;21.00;51.40
49385;DHT22;36795;45.028;38.968;2023-09-30T01:53:28;21.00;51.50
49385;DHT22;36795;45.028;38.968;2023-09-30T01:56:15;21.00;51.70
49385;DHT22;36795;45.028;38.968;2023-09-30T01:59:01;20.90;51.70
49385;DHT22;36795;45.028;38.968;2023-09-30T02:01:48;20.90;51.80
49385;DHT22;36795;45.028;38.968;2023-09-30T02:04:35;20.90;52.00
49385;DHT22;36795;45.028;38.968;2023-09-30T02:07:22;20.90;52.10
49385;DHT22;36795;45.028;38.968;2023-09-30T02:10:09;20.80;52.40
49385;DHT22;36795;45.028;38.968;2023-09-30T02:12:55;20.80;52.60
49385;DHT22;36795;45.028;38.968;2023-09-30T02:15:41;20.80;52.80
49385;DHT22;36795;45.028;38.968;2023-09-30T02:18:27;20.80;53.00
49385;DHT22;36795;45.028;38.968;2023-09-30T02:21:14;20.70;53.10
49385;DHT22;36795;45.028;38.968;2023-09-30T02:24:00;20.70;53.20
49385;DHT22;36795;45.028;38.968;2023-09-30T02:26:46;20.70;53.50
49385;DHT22;36795;45.028;38.968;2023-09-30T02:29:33;20.70;53.50
49385;DHT22;36795;45.028;38.968;2023-09-30T02:32:18;20.70;53.70
49385;DHT22;36795;45.028;38.968;2023-09-30T02:35:05;20.70;53.90
49385;DHT22;36795;45.028;38.968;2023-09-30T02:37:51;20.60;54.00
49385;DHT22;36795;45.028;38.968;2023-09-30T02:40:37;20.60;54.10
49385;DHT22;36795;45.028;38.968;2023-09-30T02:43:23;20.60;54.30
49385;DHT22;36795;45.028;38.968;2023-09-30T02:46:10;20.60;54.40
49385;DHT22;36795;45.028;38.968;2023-09-30T02:48:56;20.60;54.50
49385;DHT22;36795;45.028;38.968;2023-09-30T02:51:42;20.60;54.60
49385;DHT22;36795;45.028;38.968;2023-09-30T02:54:31;20.60;54.70
49385;DHT22;36795;45.028;38.968;2023-09-30T02:57:17;20.60;54.90
49385;DHT22;36795;45.028;38.968;2023-09-30T03:00:06;20.60;54.90
49385;DHT22;36795;45.028;38.968;2023-09-30T03:03:12;20.60;55.60
49385;DHT22;36795;45.028;38.968;2023-09-30T03:05:58;20.50;55.20
49385;DHT22;36795;45.028;38.968;2023-09-30T03:08:44;20.50;55.40
49385;DHT22;36795;45.028;38.968;2023-09-30T03:11:31;20.40;55.50
49385;DHT22;36795;45.028;38.968;2023-09-30T03:14:17;20.40;56.10
49385;DHT22;36795;45.028;38.968;2023-09-30T03:17:03;20.20;56.20
49385;DHT22;36795;45.028;38.968;2023-09-30T03:19:50;20.20;56.50
49385;DHT22;36795;45.028;38.968;2023-09-30T03:22:35;20.20;56.50
49385;DHT22;36795;45.028;38.968;2023-09-30T03:25:22;20.20;56.60
49385;DHT22;36795;45.028;38.968;2023-09-30T03:28:08;20.20;56.80
49385;DHT22;36795;45.028;38.968;2023-09-30T03:30:55;20.20;57.00
49385;DHT22;36795;45.028;38.968;2023-09-30T03:33:42;20.20;57.00
49385;DHT22;36795;45.028;38.968;2023-09-30T03:36:28;20.20;57.00
49385;DHT22;36795;45.028;38.968;2023-09-30T03:39:14;20.20;57.00
49385;DHT22;36795;45.028;38.968;2023-09-30T03:42:01;20.20;57.10
49385;DHT22;36795;45.028;38.968;2023-09-30T03:44:48;20.30;57.20
49385;DHT22;36795;45.028;38.968;2023-09-30T03:47:36;20.20;57.20
49385;DHT22;36795;45.028;38.968;2023-09-30T03:50:22;20.20;57.30
49385;DHT22;36795;45.028;38.968;2023-09-30T03:53:10;20.20;57.40
49385;DHT22;36795;45.028;38.968;2023-09-30T03:55:56;20.30;57.80
49385;DHT22;36795;45.028;38.968;2023-09-30T03:58:43;20.20;57.90
49385;DHT22;36795;45.028;38.968;2023-09-30T04:01:30;20.30;57.90
49385;DHT22;36795;45.028;38.968;2023-09-30T04:04:16;20.30;57.80
49385;DHT22;36795;45.028;38.968;2023-09-30T04:07:03;20.40;57.80
49385;DHT22;36795;45.028;38.968;2023-09-30T04:09:56;20.40;57.90
49385;DHT22;36795;45.028;38.968;2023-09-30T04:12:42;20.40;57.70
49385;DHT22;36795;45.028;38.968;2023-09-30T04:15:28;20.60;57.60
49385;DHT22;36795;45.028;38.968;2023-09-30T04:18:14;20.60;57.40
49385;DHT22;36795;45.028;38.968;2023-09-30T04:21:01;20.70;57.40
49385;DHT22;36795;45.028;38.968;2023-09-30T04:23:49;20.80;57.40
49385;DHT22;36795;45.028;38.968;2023-09-30T04:26:35;20.80;57.60
49385;DHT22;36795;45.028;38.968;2023-09-30T04:29:22;20.70;57.50
49385;DHT22;36795;45.028;38.968;2023-09-30T04:32:09;20.90;57.40
49385;DHT22;36795;45.028;38.968;2023-09-30T04:34:55;21.00;57.10
49385;DHT22;36795;45.028;38.968;2023-09-30T04:37:41;21.00;57.30
49385;DHT22;36795;45.028;38.968;2023-09-30T04:40:28;21.00;57.40
49385;DHT22;36795;45.028;38.968;2023-09-30T04:43:15;21.00;57.40
49385;DHT22;36795;45.028;38.968;2023-09-30T04:46:02;21.00;57.60
49385;DHT22;36795;45.028;38.968;2023-09-30T04:48:49;20.90;57.90
49385;DHT22;36795;45.028;38.968;2023-09-30T04:51:37;20.80;58.40
49385;DHT22;36795;45.028;38.968;2023-09-30T04:54:25;20.70;58.50
49385;DHT22;36795;45.028;38.968;2023-09-30T04:57:11;20.90;58.30
49385;DHT22;36795;45.028;38.968;2023-09-30T04:59:57;21.10;57.90
49385;DHT22;36795;45.028;38.968;2023-09-30T05:02:44;21.20;57.90
49385;DHT22;36795;45.028;38.968;2023-09-30T05:05:31;21.30;57.70
49385;DHT22;36795;45.028;38.968;2023-09-30T05:08:17;21.50;57.40
49385;DHT22;36795;45.028;38.968;2023-09-30T05:11:03;21.60;57.10
49385;DHT22;36795;45.028;38.968;2023-09-30T05:13:49;21.90;56.80
49385;DHT22;36795;45.028;38.968;2023-09-30T05:16:37;22.10;56.30
49385;DHT22;36795;45.028;38.968;2023-09-30T05:19:23;22.20;56.20
49385;DHT22;36795;45.028;38.968;2023-09-30T05:22:10;22.20;56.20
49385;DHT22;36795;45.028;38.968;2023-09-30T05:24:56;22.40;56.10
49385;DHT22;36795;45.028;38.968;2023-09-30T05:27:45;22.50;55.90
49385;DHT22;36795;45.028;38.968;2023-09-30T05:30:33;22.50;55.90
49385;DHT22;36795;45.028;38.968;2023-09-30T05:33:19;22.60;55.80
49385;DHT22;36795;45.028;38.968;2023-09-30T05:36:05;22.80;55.40
49385;DHT22;36795;45.028;38.968;2023-09-30T05:38:51;23.20;54.90
49385;DHT22;36795;45.028;38.968;2023-09-30T05:41:39;23.40;54.10
49385;DHT22;36795;45.028;38.968;2023-09-30T05:44:26;23.60;53.60
49385;DHT22;36795;45.028;38.968;2023-09-30T05:47:13;23.60;53.40
49385;DHT22;36795;45.028;38.968;2023-09-30T05:49:59;23.30;54.10
49385;DHT22;36795;45.028;38.968;2023-09-30T05:52:45;23.00;54.80
49385;DHT22;36795;45.028;38.968;2023-09-30T05:55:31;23.00;55.60
49385;DHT22;36795;45.028;38.968;2023-09-30T05:58:17;23.30;54.70
49385;DHT22;36795;45.028;38.968;2023-09-30T06:01:08;23.70;53.70
49385;DHT22;36795;45.028;38.968;2023-09-30T06:03:56;24.40;52.10
49385;DHT22;36795;45.028;38.968;2023-09-30T06:06:42;24.60;51.50
49385;DHT22;36795;45.028;38.968;2023-09-30T06:09:29;24.50;51.70
49385;DHT22;36795;45.028;38.968;2023-09-30T06:12:16;24.50;51.80
49385;DHT22;36795;45.028;38.968;2023-09-30T06:15:02;25.00;51.30
49385;DHT22;36795;45.028;38.968;2023-09-30T06:17:50;25.70;50.00
49385;DHT22;36795;45.028;38.968;2023-09-30T06:20:37;26.60;48.50
49385;DHT22;36795;45.028;38.968;2023-09-30T06:23:24;27.10;47.30
49385;DHT22;36795;45.028;38.968;2023-09-30T06:26:10;27.10;46.90
49385;DHT22;36795;45.028;38.968;2023-09-30T06:28:56;27.40;46.40
49385;DHT22;36795;45.028;38.968;2023-09-30T06:31:42;27.60;46.00
49385;DHT22;36795;45.028;38.968;2023-09-30T06:34:28;27.20;46.60
49385;DHT22;36795;45.028;38.968;2023-09-30T06:37:16;26.80;47.50
49385;DHT22;36795;45.028;38.968;2023-09-30T06:40:08;26.40;48.20
49385;DHT22;36795;45.028;38.968;2023-09-30T06:42:54;26.60;48.20
49385;DHT22;36795;45.028;38.968;2023-09-30T06:45:40;26.80;47.60
49385;DHT22;36795;45.028;38.968;2023-09-30T06:48:28;26.60;47.90
49385;DHT22;36795;45.028;38.968;2023-09-30T06:51:14;25.80;49.30
49385;DHT22;36795;45.028;38.968;2023-09-30T06:54:03;25.30;50.70
49385;DHT22;36795;45.028;38.968;2023-09-30T06:56:49;25.50;50.70
49385;DHT22;36795;45.028;38.968;2023-09-30T06:59:35;26.90;48.40
49385;DHT22;36795;45.028;38.968;2023-09-30T07:02:22;28.40;46.10
49385;DHT22;36795;45.028;38.968;2023-09-30T07:05:11;29.40;44.30
49385;DHT22;36795;45.028;38.968;2023-09-30T07:07:58;30.40;43.00
49385;DHT22;36795;45.028;38.968;2023-09-30T07:10:44;31.00;41.70
49385;DHT22;36795;45.028;38.968;2023-09-30T07:13:38;30.40;42.50
49385;DHT22;36795;45.028;38.968;2023-09-30T07:16:24;30.20;42.70
49385;DHT22;36795;45.028;38.968;2023-09-30T07:19:10;30.80;41.90
49385;DHT22;36795;45.028;38.968;2023-09-30T07:21:56;31.60;41.40
49385;DHT22;36795;45.028;38.968;2023-09-30T07:24:42;31.80;40.20
49385;DHT22;36795;45.028;38.968;2023-09-30T07:27:28;31.70;40.10
49385;DHT22;36795;45.028;38.968;2023-09-30T07:30:15;31.80;40.20
49385;DHT22;36795;45.028;38.968;2023-09-30T07:33:01;32.10;39.70
49385;DHT22;36795;45.028;38.968;2023-09-30T07:35:46;31.90;39.80
49385;DHT22;36795;45.028;38.968;2023-09-30T07:38:33;32.00;39.80
49385;DHT22;36795;45.028;38.968;2023-09-30T07:41:19;31.80;40.10
49385;DHT22;36795;45.028;38.968;2023-09-30T07:44:05;30.90;41.20
49385;DHT22;36795;45.028;38.968;2023-09-30T07:46:51;30.60;41.60
49385;DHT22;36795;45.028;38.968;2023-09-30T07:49:38;30.70;41.40
49385;DHT22;36795;45.028;38.968;2023-09-30T07:52:25;31.20;40.70
49385;DHT22;36795;45.028;38.968;2023-09-30T07:55:12;31.90;39.80
49385;DHT22;36795;45.028;38.968;2023-09-30T07:57:58;32.20;39.30
49385;DHT22;36795;45.028;38.968;2023-09-30T08:00:46;32.70;38.70
49385;DHT22;36795;45.028;38.968;2023-09-30T08:03:34;32.70;38.60
49385;DHT22;36795;45.028;38.968;2023-09-30T08:06:20;32.80;39.20
49385;DHT22;36795;45.028;38.968;2023-09-30T08:09:07;32.70;38.50
49385;DHT22;36795;45.028;38.968;2023-09-30T08:11:57;33.10;37.90
49385;DHT22;36795;45.028;38.968;2023-09-30T08:14:44;33.20;37.40
49385;DHT22;36795;45.028;38.968;2023-09-30T08:17:30;32.80;38.40
49385;DHT22;36795;45.028;38.968;2023-09-30T08:20:16;32.20;38.60
49385;DHT22;36795;45.028;38.968;2023-09-30T08:23:03;31.40;39.40
49385;DHT22;36795;45.028;38.968;2023-09-30T08:25:49;30.80;40.10
49385;DHT22;36795;45.028;38.968;2023-09-30T08:28:35;30.60;40.10
49385;DHT22;36795;45.028;38.968;2023-09-30T08:31:21;30.20;40.60
49385;DHT22;36795;45.028;38.968;2023-09-30T08:34:07;29.60;41.50
49385;DHT22;36795;45.028;38.968;2023-09-30T08:36:53;29.10;42.30
49385;DHT22;36795;45.028;38.968;2023-09-30T08:39:39;28.90;42.70
49385;DHT22;36795;45.028;38.968;2023-09-30T08:42:27;28.60;42.90
49385;DHT22;36795;45.028;38.968;2023-09-30T08:45:18;28.30;43.40
49385;DHT22;36795;45.028;38.968;2023-09-30T08:48:05;28.30;43.40
49385;DHT22;36795;45.028;38.968;2023-09-30T08:50:53;28.30;43.30
49385;DHT22;36795;45.028;38.968;2023-09-30T08:53:44;28.20;43.10
49385;DHT22;36795;45.028;38.968;2023-09-30T08:56:31;28.20;43.30
49385;DHT22;36795;45.028;38.968;2023-09-30T08:59:21;28.00;43.30
49385;DHT22;36795;45.028;38.968;2023-09-30T09:02:10;27.90;43.40
49385;DHT22;36795;45.028;38.968;2023-09-30T09:04:58;27.80;43.30
49385;DHT22;36795;45.028;38.968;2023-09-30T09:07:45;27.60;43.80
49385;DHT22;36795;45.028;38.968;2023-09-30T09:10:32;27.60;44.00
49385;DHT22;36795;45.028;38.968;2023-09-30T09:13:18;27.50;44.00
49385;DHT22;36795;45.028;38.968;2023-09-30T09:16:08;27.40;44.10
49385;DHT22;36795;45.028;38.968;2023-09-30T09:18:54;27.50;44.20
49385;DHT22;36795;45.028;38.968;2023-09-30T09:21:53;27.50;44.20
49385;DHT22;36795;45.028;38.968;2023-09-30T09:24:40;27.60;44.30
49385;DHT22;36795;45.028;38.968;2023-09-30T09:27:36;27.60;44.30
49385;DHT22;36795;45.028;38.968;2023-09-30T09:30:26;28.10;43.70
49385;DHT22;36795;45.028;38.968;2023-09-30T09:33:13;28.20;43.40
49385;DHT22;36795;45.028;38.968;2023-09-30T09:35:58;28.10;43.60
49385;DHT22;36795;45.028;38.968;2023-09-30T09:38:54;27.90;44.10
49385;DHT22;36795;45.028;38.968;2023-09-30T09:41:52;27.60;44.60
49385;DHT22;36795;45.028;38.968;2023-09-30T09:44:39;27.50;45.00
49385;DHT22;36795;45.028;38.968;2023-09-30T09:47:26;27.40;45.00
49385;DHT22;36795;45.028;38.968;2023-09-30T09:50:14;27.40;45.40
49385;DHT22;36795;45.028;38.968;2023-09-30T09:53:00;27.40;45.50
49385;DHT22;36795;45.028;38.968;2023-09-30T09:55:47;27.40;45.30
49385;DHT22;36795;45.028;38.968;2023-09-30T09:58:34;27.40;45.40
49385;DHT22;36795;45.028;38.968;2023-09-30T10:01:22;27.40;45.50
49385;DHT22;36795;45.028;38.968;2023-09-30T10:04:11;27.40;45.60
49385;DHT22;36795;45.028;38.968;2023-09-30T10:06:57;27.40;45.80
49385;DHT22;36795;45.028;38.968;2023-09-30T10:09:47;27.40;45.60
49385;DHT22;36795;45.028;38.968;2023-09-30T10:12:40;27.50;45.50
49385;DHT22;36795;45.028;38.968;2023-09-30T10:18:12;27.50;45.60
49385;DHT22;36795;45.028;38.968;2023-09-30T10:21:07;27.40;45.50
49385;DHT22;36795;45.028;38.968;2023-09-30T10:30:11;27.50;45.40
49385;DHT22;36795;45.028;38.968;2023-09-30T10:35:47;27.40;45.10
49385;DHT22;36795;45.028;38.968;2023-09-30T10:44:34;27.50;45.00
49385;DHT22;36795;45.028;38.968;2023-09-30T10:53:32;27.60;44.70
49385;DHT22;36795;45.028;38.968;2023-09-30T10:56:21;27.60;44.80
49385;DHT22;36795;45.028;38.968;2023-09-30T10:59:08;27.60;44.80
49385;DHT22;36795;45.028;38.968;2023-09-30T11:01:55;27.80;44.40
49385;DHT22;36795;45.028;38.968;2023-09-30T11:04:47;27.90;44.30
49385;DHT22;36795;45.028;38.968;2023-09-30T11:07:34;28.10;44.20
49385;DHT22;36795;45.028;38.968;2023-09-30T11:10:22;28.00;43.80
49385;DHT22;36795;45.028;38.968;2023-09-30T11:13:09;28.10;43.70
49385;DHT22;36795;45.028;38.968;2023-09-30T11:16:02;28.20;43.40
49385;DHT22;36795;45.028;38.968;2023-09-30T11:18:54;28.30;43.10
49385;DHT22;36795;45.028;38.968;2023-09-30T11:21:40;28.50;43.00
49385;DHT22;36795;45.028;38.968;2023-09-30T11:24:27;28.50;42.50
49385;DHT22;36795;45.028;38.968;2023-09-30T11:27:23;28.40;42.40
49385;DHT22;36795;45.028;38.968;2023-09-30T11:30:13;28.30;42.50
49385;DHT22;36795;45.028;38.968;2023-09-30T11:32:59;28.20;42.50
49385;DHT22;36795;45.028;38.968;2023-09-30T11:36:03;28.20;42.80
49385;DHT22;36795;45.028;38.968;2023-09-30T11:38:51;28.30;42.70
49385;DHT22;36795;45.028;38.968;2023-09-30T11:41:39;28.50;42.50
49385;DHT22;36795;45.028;38.968;2023-09-30T11:44:26;28.60;42.20
49385;DHT22;36795;45.028;38.968;2023-09-30T11:47:15;28.80;42.40
49385;DHT22;36795;45.028;38.968;2023-09-30T11:50:01;28.90;41.70
49385;DHT22;36795;45.028;38.968;2023-09-30T11:52:50;28.90;41.50
49385;DHT22;36795;45.028;38.968;2023-09-30T11:55:36;28.80;41.50
49385;DHT22;36795;45.028;38.968;2023-09-30T11:58:23;28.90;41.50
49385;DHT22;36795;45.028;38.968;2023-09-30T12:01:09;28.80;41.70
49385;DHT22;36795;45.028;38.968;2023-09-30T12:03:59;28.70;41.80
49385;DHT22;36795;45.028;38.968;2023-09-30T12:06:46;28.80;41.90
49385;DHT22;36795;45.028;38.968;2023-09-30T12:09:37;28.90;41.70
49385;DHT22;36795;45.028;38.968;2023-09-30T12:12:23;29.10;41.50
49385;DHT22;36795;45.028;38.968;2023-09-30T12:15:10;29.20;41.10
49385;DHT22;36795;45.028;38.968;2023-09-30T12:17:56;29.40;40.60
49385;DHT22;36795;45.028;38.968;2023-09-30T12:20:42;29.70;40.10
49385;DHT22;36795;45.028;38.968;2023-09-30T12:23:29;30.10;39.90
49385;DHT22;36795;45.028;38.968;2023-09-30T12:26:16;30.50;39.40
49385;DHT22;36795;45.028;38.968;2023-09-30T12:29:02;31.10;38.90
49385;DHT22;36795;45.028;38.968;2023-09-30T12:31:50;31.40;38.50
49385;DHT22;36795;45.028;38.968;2023-09-30T12:34:38;31.40;38.10
49385;DHT22;36795;45.028;38.968;2023-09-30T12:37:24;31.30;38.20
49385;DHT22;36795;45.028;38.968;2023-09-30T12:40:10;31.50;37.90
49385;DHT22;36795;45.028;38.968;2023-09-30T12:42:57;31.60;37.60
49385;DHT22;36795;45.028;38.968;2023-09-30T12:45:43;31.50;37.60
49385;DHT22;36795;45.028;38.968;2023-09-30T12:48:29;31.50;38.00
49385;DHT22;36795;45.028;38.968;2023-09-30T12:51:15;31.80;37.80
49385;DHT22;36795;45.028;38.968;2023-09-30T12:54:02;32.50;37.10
49385;DHT22;36795;45.028;38.968;2023-09-30T12:56:48;33.60;36.00
49385;DHT22;36795;45.028;38.968;2023-09-30T12:59:36;34.50;34.80
49385;DHT22;36795;45.028;38.968;2023-09-30T13:02:23;34.60;34.30
49385;DHT22;36795;45.028;38.968;2023-09-30T13:05:09;34.90;34.10
49385;DHT22;36795;45.028;38.968;2023-09-30T13:07:55;35.30;33.50
49385;DHT22;36795;45.028;38.968;2023-09-30T13:10:42;35.40;33.30
49385;DHT22;36795;45.028;38.968;2023-09-30T13:13:33;35.80;32.70
49385;DHT22;36795;45.028;38.968;2023-09-30T13:16:19;35.90;32.70
49385;DHT22;36795;45.028;38.968;2023-09-30T13:19:05;35.80;32.40
49385;DHT22;36795;45.028;38.968;2023-09-30T13:21:52;35.60;32.50
49385;DHT22;36795;45.028;38.968;2023-09-30T13:24:38;35.30;32.80
49385;DHT22;36795;45.028;38.968;2023-09-30T13:27:25;34.90;32.90
49385;DHT22;36795;45.028;38.968;2023-09-30T13:30:11;34.40;33.30
49385;DHT22;36795;45.028;38.968;2023-09-30T13:32:59;34.10;33.70
49385;DHT22;36795;45.028;38.968;2023-09-30T13:35:45;33.40;34.30
49385;DHT22;36795;45.028;38.968;2023-09-30T13:38:32;32.50;35.40
49385;DHT22;36795;45.028;38.968;2023-09-30T13:41:19;31.70;36.20
49385;DHT22;36795;45.028;38.968;2023-09-30T13:44:05;31.20;37.00
49385;DHT22;36795;45.028;38.968;2023-09-30T13:46:51;30.90;37.30
49385;DHT22;36795;45.028;38.968;2023-09-30T13:49:37;30.70;37.40
49385;DHT22;36795;45.028;38.968;2023-09-30T13:52:23;30.40;37.60
49385;DHT22;36795;45.028;38.968;2023-09-30T13:55:09;30.30;37.90
49385;DHT22;36795;45.028;38.968;2023-09-30T13:57:55;30.60;37.90
49385;DHT22;36795;45.028;38.968;2023-09-30T14:00:46;31.20;37.20
49385;DHT22;36795;45.028;38.968;2023-09-30T14:03:33;31.50;36.30
49385;DHT22;36795;45.028;38.968;2023-09-30T14:06:19;31.50;36.30
49385;DHT22;36795;45.028;38.968;2023-09-30T14:09:06;31.30;36.20
49385;DHT22;36795;45.028;38.968;2023-09-30T14:11:51;31.00;36.10
49385;DHT22;36795;45.028;38.968;2023-09-30T14:14:38;30.90;35.70
49385;DHT22;36795;45.028;38.968;2023-09-30T14:17:24;30.70;35.60
49385;DHT22;36795;45.028;38.968;2023-09-30T14:20:11;30.40;35.90
49385;DHT22;36795;45.028;38.968;2023-09-30T14:22:57;30.00;36.30
49385;DHT22;36795;45.028;38.968;2023-09-30T14:25:44;29.50;36.70
49385;DHT22;36795;45.028;38.968;2023-09-30T14:28:29;29.10;37.10
49385;DHT22;36795;45.028;38.968;2023-09-30T14:31:15;28.70;37.00
49385;DHT22;36795;45.028;38.968;2023-09-30T14:34:03;28.50;37.10
49385;DHT22;36795;45.028;38.968;2023-09-30T14:36:51;28.20;37.20
49385;DHT22;36795;45.028;38.968;2023-09-30T14:39:37;28.00;37.30
49385;DHT22;36795;45.028;38.968;2023-09-30T14:42:24;27.90;37.50
49385;DHT22;36795;45.028;38.968;2023-09-30T14:45:10;27.80;37.60
49385;DHT22;36795;45.028;38.968;2023-09-30T14:47:56;27.80;37.60
49385;DHT22;36795;45.028;38.968;2023-09-30T14:50:50;27.70;37.70
49385;DHT22;36795;45.028;38.968;2023-09-30T14:53:37;27.60;37.80
49385;DHT22;36795;45.028;38.968;2023-09-30T14:56:22;27.50;37.80
49385;DHT22;36795;45.028;38.968;2023-09-30T14:59:08;27.40;37.80
49385;DHT22;36795;45.028;38.968;2023-09-30T15:01:54;27.30;38.00
49385;DHT22;36795;45.028;38.968;2023-09-30T15:04:40;27.20;37.80
49385;DHT22;36795;45.028;38.968;2023-09-30T15:07:26;27.10;37.80
49385;DHT22;36795;45.028;38.968;2023-09-30T15:10:12;27.10;37.70
49385;DHT22;36795;45.028;38.968;2023-09-30T15:12:58;27.00;37.80
49385;DHT22;36795;45.028;38.968;2023-09-30T15:15:44;27.00;37.80
49385;DHT22;36795;45.028;38.968;2023-09-30T15:18:30;26.90;37.80
49385;DHT22;36795;45.028;38.968;2023-09-30T15:21:17;26.80;37.80
49385;DHT22;36795;45.028;38.968;2023-09-30T15:24:03;26.80;37.90
49385;DHT22;36795;45.028;38.968;2023-09-30T15:26:50;26.70;37.90
49385;DHT22;36795;45.028;38.968;2023-09-30T15:29:35;26.60;37.80
49385;DHT22;36795;45.028;38.968;2023-09-30T15:32:21;26.60;37.90
49385;DHT22;36795;45.028;38.968;2023-09-30T15:35:08;26.60;38.00
49385;DHT22;36795;45.028;38.968;2023-09-30T15:37:54;26.50;38.00
49385;DHT22;36795;45.028;38.968;2023-09-30T15:40:58;26.50;37.90
49385;DHT22;36795;45.028;38.968;2023-09-30T15:43:44;26.50;37.80
49385;DHT22;36795;45.028;38.968;2023-09-30T15:46:30;26.40;37.80
49385;DHT22;36795;45.028;38.968;2023-09-30T15:49:16;26.30;37.70
49385;DHT22;36795;45.028;38.968;2023-09-30T15:52:02;26.30;37.70
49385;DHT22;36795;45.028;38.968;2023-09-30T15:54:48;26.30;37.70
49385;DHT22;36795;45.028;38.968;2023-09-30T15:57:34;26.30;37.60
49385;DHT22;36795;45.028;38.968;2023-09-30T16:00:20;26.20;37.50
49385;DHT22;36795;45.028;38.968;2023-09-30T16:03:09;26.10;37.40
49385;DHT22;36795;45.028;38.968;2023-09-30T16:05:55;26.10;37.40
49385;DHT22;36795;45.028;38.968;2023-09-30T16:08:41;26.10;37.30
49385;DHT22;36795;45.028;38.968;2023-09-30T16:11:28;26.00;37.30
49385;DHT22;36795;45.028;38.968;2023-09-30T16:14:15;26.00;37.50
49385;DHT22;36795;45.028;38.968;2023-09-30T16:17:00;26.00;37.40
49385;DHT22;36795;45.028;38.968;2023-09-30T16:19:47;25.90;37.40
49385;DHT22;36795;45.028;38.968;2023-09-30T16:22:32;25.90;37.40
49385;DHT22;36795;45.028;38.968;2023-09-30T16:25:19;25.90;37.60
49385;DHT22;36795;45.028;38.968;2023-09-30T16:28:07;25.90;37.70
49385;DHT22;36795;45.028;38.968;2023-09-30T16:30:53;25.80;37.80
49385;DHT22;36795;45.028;38.968;2023-09-30T16:33:39;25.70;37.80
49385;DHT22;36795;45.028;38.968;2023-09-30T16:36:25;25.70;38.00
49385;DHT22;36795;45.028;38.968;2023-09-30T16:39:12;25.70;38.00
49385;DHT22;36795;45.028;38.968;2023-09-30T16:42:00;25.70;38.10
49385;DHT22;36795;45.028;38.968;2023-09-30T16:44:46;25.60;38.10
49385;DHT22;36795;45.028;38.968;2023-09-30T16:47:32;25.60;38.20
49385;DHT22;36795;45.028;38.968;2023-09-30T16:50:18;25.50;38.20
49385;DHT22;36795;45.028;38.968;2023-09-30T16:53:04;25.50;38.40
49385;DHT22;36795;45.028;38.968;2023-09-30T16:55:50;25.50;39.00
49385;DHT22;36795;45.028;38.968;2023-09-30T16:58:38;25.40;38.40
49385;DHT22;36795;45.028;38.968;2023-09-30T17:01:23;25.40;38.50
49385;DHT22;36795;45.028;38.968;2023-09-30T17:04:10;25.40;38.60
49385;DHT22;36795;45.028;38.968;2023-09-30T17:06:56;25.30;38.60
49385;DHT22;36795;45.028;38.968;2023-09-30T17:09:42;25.30;38.70
49385;DHT22;36795;45.028;38.968;2023-09-30T17:12:28;25.30;38.80
49385;DHT22;36795;45.028;38.968;2023-09-30T17:15:14;25.20;38.80
49385;DHT22;36795;45.028;38.968;2023-09-30T17:18:00;25.30;39.50
49385;DHT22;36795;45.028;38.968;2023-09-30T17:20:46;25.20;38.90
49385;DHT22;36795;45.028;38.968;2023-09-30T17:23:32;25.20;39.00
49385;DHT22;36795;45.028;38.968;2023-09-30T17:26:19;25.10;39.00
49385;DHT22;36795;45.028;38.968;2023-09-30T17:29:07;25.10;39.10
49385;DHT22;36795;45.028;38.968;2023-09-30T17:31:54;25.00;39.00
49385;DHT22;36795;45.028;38.968;2023-09-30T17:34:39;25.00;39.10
49385;DHT22;36795;45.028;38.968;2023-09-30T17:37:26;25.00;39.20
49385;DHT22;36795;45.028;38.968;2023-09-30T17:40:13;24.90;39.20
49385;DHT22;36795;45.028;38.968;2023-09-30T17:42:59;24.90;39.30